Time;durP1;ratioP1;P1;durP2;ratioP2;P2;SDS_P1;SDS_P2;PMS_P1;PMS_P2;Temp;Humidity;BMP_temperature;BMP_pressure;BME280_temperature;BME280_humidity;BME280_pressure;Samples;Min_cycle;Max_cycle;Signal;HPM_P1;HPM_P2
2024/01/22 00:00:35;;;;;;;15.68;14.18;;;23.20;63.30;;;;;;6185752;28;89039;-93
2024/01/22 00:03:37;;;;;;;16.27;14.68;;;23.20;63.30;;;;;;6184992;28;90052;-93
2024/01/22 00:06:40;;;;;;;15.45;13.85;;;23.30;63.40;;;;;;6185588;28;87917;-93
2024/01/22 00:09:44;;;;;;;15.75;14.15;;;23.20;63.40;;;;;;6185697;28;88951;-93
2024/01/22 00:12:46;;;;;;;15.07;13.60;;;23.20;63.30;;;;;;6186241;28;88498;-93
2024/01/22 00:15:48;;;;;;;15.07;13.55;;;23.20;63.40;;;;;;6185799;28;89464;-93
2024/01/22 00:18:50;;;;;;;15.18;13.70;;;23.20;63.30;;;;;;6185582;28;89500;-93
2024/01/22 00:21:52;;;;;;;14.93;13.43;;;23.20;63.40;;;;;;6185572;28;89759;-93
2024/01/22 00:24:56;;;;;;;14.73;13.32;;;23.20;63.40;;;;;;6185797;28;88286;-93
2024/01/22 00:27:58;;;;;;;14.63;13.13;;;23.20;63.40;;;;;;6185540;28;89009;-93
2024/01/22 00:31:00;;;;;;;13.90;12.60;;;23.20;63.40;;;;;;6185358;28;89489;-94
2024/01/22 00:34:02;;;;;;;14.30;12.90;;;23.20;63.40;;;;;;6181221;28;89379;-93
2024/01/22 00:37:05;;;;;;;15.07;13.57;;;23.20;63.40;;;;;;6185434;28;89080;-93
2024/01/22 00:40:09;;;;;;;13.88;12.55;;;23.20;63.40;;;;;;6185547;28;90664;-94
2024/01/22 00:43:11;;;;;;;14.68;13.32;;;23.20;63.40;;;;;;6185659;28;89485;-93
2024/01/22 00:46:14;;;;;;;14.43;13.02;;;23.20;63.30;;;;;;6185251;28;88014;-93
2024/01/22 00:49:16;;;;;;;14.75;13.25;;;23.20;63.40;;;;;;6183639;28;89292;-93
2024/01/22 00:52:18;;;;;;;13.85;12.55;;;23.20;63.30;;;;;;6183426;28;88985;-93
2024/01/22 00:55:21;;;;;;;14.55;13.07;;;23.20;63.30;;;;;;6189052;28;88526;-93
2024/01/22 00:58:24;;;;;;;14.57;13.07;;;23.20;63.30;;;;;;6189362;28;89518;-93
2024/01/22 01:01:26;;;;;;;14.85;13.35;;;23.20;63.30;;;;;;6189007;28;89096;-93
2024/01/22 01:04:29;;;;;;;14.60;13.15;;;23.20;63.30;;;;;;6190700;28;90210;-93
2024/01/22 01:07:31;;;;;;;15.20;13.70;;;23.20;63.30;;;;;;6189491;28;89460;-93
2024/01/22 01:10:35;;;;;;;16.08;14.48;;;23.20;63.40;;;;;;6189759;28;89531;-93
2024/01/22 01:13:37;;;;;;;16.08;14.50;;;23.20;63.60;;;;;;6189243;28;89363;-96
2024/01/22 01:16:39;;;;;;;17.38;15.68;;;23.20;63.70;;;;;;6189733;28;90281;-94
2024/01/22 01:19:41;;;;;;;16.45;14.85;;;23.20;64.20;;;;;;6188820;28;89063;-93
2024/01/22 01:22:43;;;;;;;16.42;14.82;;;23.20;64.70;;;;;;6187787;28;89308;-93
2024/01/22 01:25:46;;;;;;;17.52;15.73;;;23.30;64.00;;;;;;6189044;28;87175;-94
2024/01/22 01:28:48;;;;;;;16.27;14.57;;;23.30;63.30;;;;;;6188586;28;89045;-94
2024/01/22 01:31:55;;;;;;;17.23;15.00;;;23.30;62.60;;;;;;6189034;28;89006;-94
2024/01/22 01:34:57;;;;;;;16.88;15.18;;;23.30;62.70;;;;;;6188614;28;91662;-94
2024/01/22 01:38:01;;;;;;;16.30;14.70;;;23.30;62.70;;;;;;6189870;28;90481;-94
2024/01/22 01:41:18;;;;;;;15.27;13.68;;;23.30;63.70;;;;;;6189301;28;91352;-94
2024/01/22 01:44:22;;;;;;;16.10;14.40;;;23.30;62.80;;;;;;6189054;28;89481;-94
2024/01/22 01:47:25;;;;;;;15.43;13.85;;;23.30;62.80;;;;;;6188053;28;87686;-94
2024/01/22 01:50:27;;;;;;;15.13;13.63;;;23.20;62.70;;;;;;6188335;28;89047;-94
2024/01/22 01:53:29;;;;;;;15.43;13.82;;;23.30;62.70;;;;;;6190772;28;89278;-94
2024/01/22 01:56:33;;;;;;;15.32;13.77;;;23.30;62.70;;;;;;6188836;28;88263;-94
2024/01/22 01:59:36;;;;;;;15.38;13.80;;;23.20;62.70;;;;;;6181115;28;89006;-94
2024/01/22 02:02:42;;;;;;;15.18;13.68;;;23.30;62.70;;;;;;6186217;28;89404;-95
2024/01/22 02:05:44;;;;;;;15.68;14.10;;;23.20;62.60;;;;;;6187079;28;90001;-94
2024/01/22 02:08:51;;;;;;;16.42;14.73;;;23.20;62.70;;;;;;6188095;28;88040;-94
2024/01/22 02:11:55;;;;;;;15.55;13.95;;;23.30;62.70;;;;;;6187542;28;89140;-94
2024/01/22 02:14:57;;;;;;;15.70;14.20;;;23.20;62.70;;;;;;6187889;28;89045;-94
2024/01/22 02:18:00;;;;;;;15.77;14.18;;;23.20;62.60;;;;;;6187908;28;89364;-94
2024/01/22 02:21:02;;;;;;;15.18;13.57;;;23.20;62.60;;;;;;6188036;28;87961;-93
2024/01/22 02:24:06;;;;;;;15.43;13.82;;;23.20;62.50;;;;;;6188112;28;89279;-94
2024/01/22 02:27:08;;;;;;;15.10;13.52;;;23.20;62.50;;;;;;6188085;28;88330;-94
2024/01/22 02:30:11;;;;;;;14.85;13.35;;;23.30;62.70;;;;;;6187782;28;88421;-93
2024/01/22 02:33:14;;;;;;;15.02;13.48;;;23.20;62.60;;;;;;6187430;28;89519;-93
2024/01/22 02:36:19;;;;;;;15.18;13.15;;;23.20;62.70;;;;;;6183061;28;88405;-94
2024/01/22 02:39:22;;;;;;;16.17;13.65;;;23.20;62.80;;;;;;6187054;28;89759;-94
2024/01/22 02:42:24;;;;;;;14.48;12.52;;;23.20;63.00;;;;;;6186643;28;89091;-93
2024/01/22 02:45:26;;;;;;;15.80;13.55;;;23.20;63.20;;;;;;6187485;28;90919;-94
2024/01/22 02:48:28;;;;;;;15.93;12.57;;;23.30;63.50;;;;;;6186596;28;88991;-94
2024/01/22 02:51:30;;;;;;;14.82;12.65;;;23.20;63.50;;;;;;6187092;28;89042;-94
2024/01/22 02:54:34;;;;;;;14.63;12.93;;;23.30;63.70;;;;;;6187094;28;90932;-93
2024/01/22 02:57:36;;;;;;;14.40;12.90;;;23.20;63.70;;;;;;6187094;28;88223;-94
2024/01/22 03:00:38;;;;;;;14.82;12.63;;;23.20;63.70;;;;;;6186309;28;90425;-93
2024/01/22 03:03:41;;;;;;;14.25;12.55;;;23.30;63.90;;;;;;6186457;28;89223;-93
2024/01/22 03:06:44;;;;;;;15.82;12.65;;;23.30;63.90;;;;;;6186433;28;90057;-94
2024/01/22 03:09:47;;;;;;;14.55;12.95;;;23.30;64.00;;;;;;6187283;28;88028;-94
2024/01/22 03:12:49;;;;;;;13.50;12.10;;;23.30;64.00;;;;;;6186672;28;87927;-93
2024/01/22 03:15:51;;;;;;;13.70;11.70;;;23.20;64.20;;;;;;6185831;28;89291;-93
2024/01/22 03:18:54;;;;;;;14.52;12.15;;;23.20;64.20;;;;;;6186642;28;89889;-93
2024/01/22 03:21:56;;;;;;;14.00;12.55;;;23.20;64.10;;;;;;6187073;28;89080;-93
2024/01/22 03:24:59;;;;;;;12.82;11.52;;;23.30;64.50;;;;;;6186658;28;89085;-93
2024/01/22 03:28:02;;;;;;;13.57;11.82;;;23.30;64.70;;;;;;6187052;28;88390;-94
2024/01/22 03:31:04;;;;;;;14.15;12.35;;;23.20;66.10;;;;;;6186578;28;87868;-93
2024/01/22 03:34:06;;;;;;;13.07;11.73;;;23.30;66.90;;;;;;6187166;28;89022;-94
2024/01/22 03:37:08;;;;;;;13.50;12.10;;;23.30;67.60;;;;;;6185719;28;90270;-94
2024/01/22 03:40:12;;;;;;;14.63;12.50;;;23.30;66.30;;;;;;6186260;28;89462;-93
2024/01/22 03:43:14;;;;;;;18.15;12.60;;;23.30;66.40;;;;;;6186097;28;88975;-93
2024/01/22 03:46:19;;;;;;;19.55;14.23;;;23.30;67.10;;;;;;6182713;28;88596;-93
2024/01/22 03:49:21;;;;;;;23.25;13.18;;;23.30;66.60;;;;;;6187064;28;89087;-93
2024/01/22 03:52:23;;;;;;;16.98;12.95;;;23.30;67.30;;;;;;6186390;28;89037;-94
2024/01/22 03:55:27;;;;;;;75.05;18.40;;;23.30;68.90;;;;;;6182495;28;88315;-95
2024/01/22 03:58:29;;;;;;;20.63;13.13;;;23.30;70.70;;;;;;6186766;28;88075;-94
2024/01/22 04:01:31;;;;;;;18.85;12.60;;;23.40;74.40;;;;;;6185784;28;90503;-95
2024/01/22 04:04:33;;;;;;;33.45;14.75;;;23.40;78.60;;;;;;6186008;28;89031;-95
2024/01/22 04:07:35;;;;;;;18.75;13.80;;;23.50;84.70;;;;;;6185405;28;89960;-95
2024/01/22 04:10:38;;;;;;;23.45;16.02;;;23.60;83.80;;;;;;6186089;28;89134;-95
2024/01/22 04:13:41;;;;;;;22.92;14.23;;;23.70;89.40;;;;;;6186159;28;89868;-96
2024/01/22 04:16:44;;;;;;;22.70;14.40;;;23.90;94.00;;;;;;6186095;28;89342;-94
2024/01/22 04:19:46;;;;;;;29.02;15.70;;;23.90;86.50;;;;;;6185715;28;89045;-94
2024/01/22 04:22:52;;;;;;;40.33;19.50;;;23.90;79.30;;;;;;6177942;28;88997;-94
2024/01/22 04:25:55;;;;;;;30.02;17.05;;;23.90;76.20;;;;;;6185698;28;89111;-95
2024/01/22 04:28:57;;;;;;;29.23;16.23;;;23.90;74.20;;;;;;6189628;28;88275;-94
2024/01/22 04:31:59;;;;;;;23.85;14.38;;;23.80;72.90;;;;;;6190478;28;89101;-96
2024/01/22 04:35:04;;;;;;;22.80;14.15;;;23.80;71.80;;;;;;6190262;28;89046;-95
2024/01/22 04:45:10;;;;;;;18.52;13.70;;;23.70;70.10;;;;;;6196956;28;88942;-94
2024/01/22 05:01:54;;;;;;;16.05;12.52;;;23.70;68.20;;;;;;6206179;28;88483;-94
2024/01/22 05:16:41;;;;;;;16.38;11.60;;;23.70;71.70;;;;;;6198159;28;89444;-94
2024/01/22 05:22:59;;;;;;;13.73;11.40;;;24.00;68.20;;;;;;6191531;28;90398;-95
2024/01/22 05:26:03;;;;;;;14.98;11.27;;;24.10;67.20;;;;;;6188091;28;88617;-94
2024/01/22 05:29:08;;;;;;;12.90;11.45;;;24.00;66.60;;;;;;6186115;28;89119;-95
2024/01/22 05:39:45;;;;;;;13.40;11.10;;;24.10;65.70;;;;;;6197745;28;90119;-95
2024/01/22 05:49:19;;;;;;;11.95;10.35;;;23.90;65.40;;;;;;6196471;28;88167;-95
2024/01/22 05:55:39;;;;;;;11.98;10.57;;;23.90;65.30;;;;;;6201756;28;89561;-96
2024/01/22 06:01:59;;;;;;;11.73;10.32;;;23.80;65.10;;;;;;6169100;28;90980;-95
2024/01/22 06:05:02;;;;;;;13.57;10.43;;;23.80;65.00;;;;;;6169073;28;89023;-95
2024/01/22 06:08:07;;;;;;;11.63;10.07;;;23.80;64.90;;;;;;6166701;28;88489;-95
2024/01/22 06:22:42;;;;;;;12.75;10.02;;;23.70;64.60;;;;;;6172254;28;89932;-95
2024/01/22 06:25:44;;;;;;;12.15;10.00;;;23.70;64.50;;;;;;6167706;28;89381;-96
2024/01/22 06:35:23;;;;;;;10.05;8.85;;;23.70;64.20;;;;;;6174096;28;88964;-95
2024/01/22 06:38:26;;;;;;;11.27;9.48;;;23.70;64.20;;;;;;6166314;28;89987;-95
2024/01/22 06:44:44;;;;;;;9.95;8.95;;;23.80;64.20;;;;;;6167675;28;90252;-94
2024/01/22 06:47:52;;;;;;;10.50;9.27;;;23.80;64.00;;;;;;6164794;28;87964;-95
2024/01/22 06:54:11;;;;;;;10.25;9.05;;;23.80;63.90;;;;;;6169874;28;89240;-95
2024/01/22 07:10:22;;;;;;;9.60;8.60;;;23.70;64.00;;;;;;6191437;28;89462;-96
2024/01/22 07:13:24;;;;;;;10.07;8.35;;;23.70;64.00;;;;;;6189177;28;88766;-96
2024/01/22 07:16:26;;;;;;;9.80;8.80;;;23.70;64.00;;;;;;6187736;28;89141;-96
2024/01/22 07:19:28;;;;;;;10.27;9.15;;;23.80;64.20;;;;;;6195986;28;89462;-95
2024/01/22 07:33:52;;;;;;;10.05;8.20;;;23.70;62.80;;;;;;6202284;28;91013;-95
2024/01/22 07:37:04;;;;;;;9.00;8.10;;;23.70;62.70;;;;;;6160995;28;87180;-95
2024/01/22 07:40:10;;;;;;;8.80;7.90;;;23.70;62.90;;;;;;6192743;28;90190;-96
2024/01/22 07:43:13;;;;;;;9.02;8.15;;;23.70;62.90;;;;;;6195092;28;88894;-95
2024/01/22 07:52:54;;;;;;;8.90;7.72;;;23.60;63.00;;;;;;6193363;28;87177;-96
2024/01/22 07:56:01;;;;;;;8.80;7.90;;;23.70;62.80;;;;;;6197899;28;90454;-96
2024/01/22 08:05:47;;;;;;;8.52;7.60;;;23.60;62.90;;;;;;6197660;28;88393;-96
2024/01/22 08:08:51;;;;;;;8.63;7.70;;;23.60;63.00;;;;;;6190237;28;88476;-96
2024/01/22 08:11:52;;;;;;;10.20;7.90;;;23.60;62.90;;;;;;6186145;28;88728;-96
2024/01/22 08:14:58;;;;;;;9.45;7.68;;;23.60;62.80;;;;;;6193991;28;89296;-96
2024/01/22 08:18:01;;;;;;;8.48;7.53;;;23.60;62.90;;;;;;6185852;28;89177;-95
2024/01/22 08:21:06;;;;;;;9.35;7.90;;;23.60;62.80;;;;;;6185290;28;86955;-94
2024/01/22 08:24:10;;;;;;;8.02;7.15;;;23.60;62.80;;;;;;6183217;28;88751;-95
2024/01/22 08:27:12;;;;;;;8.63;7.63;;;23.70;62.80;;;;;;6184327;28;90060;-96
2024/01/22 08:30:15;;;;;;;9.05;7.45;;;23.60;62.80;;;;;;6190507;28;89872;-95
2024/01/22 08:40:05;;;;;;;7.95;7.15;;;23.60;62.80;;;;;;6188805;28;87457;-96
2024/01/22 09:00:28;;;;;;;8.30;6.80;;;23.60;62.90;;;;;;6192696;28;87961;-96
2024/01/22 09:11:19;;;;;;;7.85;6.88;;;23.60;63.20;;;;;;6195415;28;89911;-95
2024/01/22 09:24:14;;;;;;;7.35;6.45;;;23.60;63.10;;;;;;6196039;28;88256;-96
2024/01/22 09:27:47;;;;;;;7.35;6.60;;;23.60;63.00;;;;;;6193171;28;89072;-95
2024/01/22 09:30:52;;;;;;;8.32;6.70;;;23.60;63.00;;;;;;6197304;28;89586;-96
2024/01/22 09:37:28;;;;;;;7.40;6.70;;;23.60;62.90;;;;;;6196098;28;88950;-96
2024/01/22 09:40:33;;;;;;;6.93;6.18;;;23.60;62.80;;;;;;6191016;28;87939;-96
2024/01/22 09:43:36;;;;;;;7.13;6.43;;;23.60;62.80;;;;;;6188195;28;89351;-96
2024/01/22 09:47:13;;;;;;;7.00;6.30;;;23.60;62.80;;;;;;6193197;28;89172;-95
2024/01/22 09:50:17;;;;;;;6.97;5.60;;;23.60;62.80;;;;;;6190503;28;87059;-96
2024/01/22 09:53:21;;;;;;;6.82;6.07;;;23.60;62.70;;;;;;6198533;28;88070;-95
2024/01/22 10:03:00;;;;;;;7.80;6.28;;;23.60;62.70;;;;;;6199347;28;89495;-95
2024/01/22 10:06:07;;;;;;;8.30;6.40;;;23.60;62.70;;;;;;6196588;28;90113;-95
2024/01/22 10:09:15;;;;;;;7.07;6.30;;;23.60;62.70;;;;;;6189297;28;89525;-95
2024/01/22 10:12:17;;;;;;;6.78;6.05;;;23.60;62.80;;;;;;6184158;28;88463;-95
2024/01/22 10:22:18;;;;;;;7.03;6.18;;;23.60;62.70;;;;;;6203400;28;87644;-96
2024/01/22 10:31:55;;;;;;;7.45;5.93;;;23.60;63.20;;;;;;6198361;28;88962;-94
2024/01/22 10:34:57;;;;;;;6.10;5.50;;;23.60;63.10;;;;;;6187624;28;89009;-94
2024/01/22 10:46:14;;;;;;;7.63;6.90;;;23.70;63.60;;;;;;6204835;28;90007;-93
2024/01/22 11:07:50;;;;;;;8.05;6.97;;;23.70;62.70;;;;;;6204061;28;89109;-93
2024/01/22 11:17:27;;;;;;;8.00;7.20;;;23.70;62.90;;;;;;6197125;28;88128;-93
2024/01/22 11:20:41;;;;;;;7.82;7.00;;;23.70;62.90;;;;;;6195838;28;87042;-92
2024/01/22 11:23:43;;;;;;;8.18;7.38;;;23.70;63.10;;;;;;6196545;28;88816;-93
2024/01/22 11:30:33;;;;;;;8.23;7.43;;;23.70;63.00;;;;;;6204380;28;89149;-92
2024/01/22 11:33:35;;;;;;;7.88;7.15;;;23.70;63.10;;;;;;6200285;28;88113;-93
2024/01/22 11:40:49;;;;;;;8.75;7.88;;;23.70;63.20;;;;;;6199289;28;89065;-93
2024/01/22 11:50:23;;;;;;;8.73;7.82;;;23.70;63.30;;;;;;6202991;28;89362;-93
2024/01/22 11:53:26;;;;;;;8.77;7.88;;;23.70;63.30;;;;;;6204055;28;89245;-93
2024/01/22 11:56:57;;;;;;;8.52;7.72;;;23.70;63.40;;;;;;6204147;28;87897;-94
2024/01/22 12:11:54;;;;;;;9.48;8.02;;;23.70;63.50;;;;;;6197862;28;89907;-93
2024/01/22 12:18:47;;;;;;;8.70;7.80;;;23.60;63.30;;;;;;6200868;28;89855;-93
2024/01/22 12:34:57;;;;;;;8.98;8.07;;;23.60;63.30;;;;;;6198885;28;90163;-94
2024/01/22 12:44:31;;;;;;;9.63;8.73;;;23.70;63.50;;;;;;6203220;28;89470;-93
2024/01/22 12:57:55;;;;;;;10.35;9.35;;;23.70;63.50;;;;;;6201818;28;89326;-94
2024/01/22 13:04:16;;;;;;;10.55;9.55;;;23.70;63.60;;;;;;6206258;28;89711;-94
2024/01/22 13:41:03;;;;;;;11.32;10.27;;;23.60;63.50;;;;;;6198237;28;86949;-94
2024/01/22 13:44:11;;;;;;;12.23;11.13;;;23.60;63.50;;;;;;6191357;28;89058;-93
2024/01/22 13:47:14;;;;;;;11.73;10.63;;;23.60;63.50;;;;;;6200697;28;88279;-93
2024/01/22 13:54:07;;;;;;;11.70;10.60;;;23.60;63.40;;;;;;6200959;28;90308;-93
2024/01/22 13:57:11;;;;;;;11.52;10.43;;;23.60;63.40;;;;;;6193716;28;88102;-94
2024/01/22 14:00:14;;;;;;;12.43;11.23;;;23.60;63.40;;;;;;6192755;28;89061;-93
2024/01/22 14:03:16;;;;;;;12.20;11.02;;;23.60;63.30;;;;;;6195941;28;88001;-94
2024/01/22 14:56:53;;;;;;;11.60;10.50;;;23.60;63.10;;;;;;6202305;28;89715;-93
2024/01/22 15:03:11;;;;;;;11.63;10.55;;;23.50;63.00;;;;;;6197377;28;90020;-93
2024/01/22 15:06:14;;;;;;;11.30;10.23;;;23.50;62.90;;;;;;6202496;28;87837;-94
2024/01/22 15:19:36;;;;;;;11.77;10.68;;;23.50;63.00;;;;;;6196120;28;87649;-93
2024/01/22 15:29:27;;;;;;;11.15;10.15;;;23.50;62.90;;;;;;6197662;28;88561;-92
2024/01/22 15:32:29;;;;;;;11.32;10.23;;;23.50;62.80;;;;;;6190417;28;88196;-93
2024/01/22 15:35:31;;;;;;;11.73;10.60;;;23.50;62.90;;;;;;6196439;28;89117;-94
2024/01/22 15:41:50;;;;;;;10.50;9.50;;;23.50;62.80;;;;;;6194317;28;86956;-94
2024/01/22 15:44:53;;;;;;;11.32;10.23;;;23.50;62.80;;;;;;6194577;28;88352;-94
2024/01/22 15:47:55;;;;;;;11.35;10.25;;;23.50;62.80;;;;;;6193493;28;88029;-93
2024/01/22 15:50:59;;;;;;;10.45;9.55;;;23.50;62.80;;;;;;6197138;28;88267;-94
2024/01/22 15:57:17;;;;;;;10.38;9.38;;;23.50;62.80;;;;;;6191689;28;90224;-93
2024/01/22 16:20:01;;;;;;;10.55;9.55;;;23.40;62.70;;;;;;6195633;28;90292;-94
2024/01/22 16:23:03;;;;;;;10.00;9.10;;;23.40;62.70;;;;;;6196138;28;87953;-93
2024/01/22 16:32:38;;;;;;;10.05;9.07;;;23.40;62.60;;;;;;6197770;28;89278;-93
2024/01/22 16:38:57;;;;;;;9.98;9.02;;;23.40;62.50;;;;;;6204642;28;90247;-94
2024/01/22 16:41:59;;;;;;;9.93;9.02;;;23.50;63.50;;;;;;6191541;28;89233;-94
2024/01/22 16:51:35;;;;;;;9.82;8.90;;;23.50;62.60;;;;;;6198541;28;90135;-94
2024/01/22 16:54:37;;;;;;;9.38;8.48;;;23.50;62.70;;;;;;6200066;28;87927;-93
2024/01/22 17:00:57;;;;;;;9.77;8.77;;;23.40;62.50;;;;;;6196452;28;89981;-94
2024/01/22 17:11:19;;;;;;;8.90;8.00;;;23.50;62.40;;;;;;6205097;28;89911;-94
2024/01/22 17:17:37;;;;;;;9.20;8.30;;;23.50;62.40;;;;;;6192410;28;89076;-93
2024/01/22 17:20:39;;;;;;;9.07;8.18;;;23.50;62.60;;;;;;6190345;28;87976;-93
2024/01/22 17:23:44;;;;;;;9.13;8.23;;;23.50;62.50;;;;;;6191100;28;89013;-93
2024/01/22 17:26:47;;;;;;;8.98;8.07;;;23.50;62.40;;;;;;6190527;28;89712;-93
2024/01/22 17:29:49;;;;;;;8.95;8.05;;;23.60;62.50;;;;;;6189413;28;87438;-93
2024/01/22 17:32:52;;;;;;;8.68;7.88;;;23.50;62.40;;;;;;6189992;28;87991;-92
2024/01/22 17:35:55;;;;;;;8.70;7.90;;;23.50;62.30;;;;;;6185884;28;87258;-93
2024/01/22 17:42:53;;;;;;;8.50;7.60;;;23.60;62.50;;;;;;6199001;28;88994;-94
2024/01/22 19:41:14;;;;;;;11.52;10.45;;;23.40;62.50;;;;;;6194351;28;89537;-92
2024/01/22 19:44:18;;;;;;;12.00;10.82;;;23.40;62.50;;;;;;6196434;28;87058;-92
2024/01/22 19:57:21;;;;;;;12.18;10.77;;;23.40;62.50;;;;;;6198811;28;87804;-92
2024/01/22 20:00:25;;;;;;;11.70;9.95;;;23.40;62.70;;;;;;6193225;28;88323;-92
2024/01/22 20:03:30;;;;;;;12.35;10.52;;;23.40;62.90;;;;;;6196626;28;88179;-92
2024/01/22 20:06:34;;;;;;;11.25;10.15;;;23.40;62.80;;;;;;6199879;28;90719;-92
2024/01/22 20:09:38;;;;;;;11.50;10.18;;;23.40;62.90;;;;;;6188237;28;86898;-92
2024/01/22 20:12:46;;;;;;;12.32;10.73;;;23.40;62.90;;;;;;6195936;28;87484;-91
2024/01/22 20:15:49;;;;;;;11.52;9.93;;;23.40;63.00;;;;;;6190118;28;88633;-91
2024/01/22 20:25:44;;;;;;;10.38;9.23;;;23.40;63.40;;;;;;6190210;28;87922;-92
2024/01/22 20:28:49;;;;;;;10.68;9.60;;;23.40;63.50;;;;;;6186406;28;89919;-92
2024/01/22 20:35:10;;;;;;;11.40;9.10;;;23.40;63.50;;;;;;6202686;28;86931;-92
2024/01/22 20:38:14;;;;;;;10.25;9.25;;;23.40;63.50;;;;;;6197109;28;87006;-92
2024/01/22 20:41:20;;;;;;;10.20;9.20;;;23.40;63.40;;;;;;6194646;28;89376;-91
2024/01/22 20:44:24;;;;;;;11.80;9.25;;;23.40;63.50;;;;;;6196187;28;86198;-92
2024/01/22 21:00:48;;;;;;;10.77;8.05;;;23.40;63.30;;;;;;6195784;28;89537;-92
2024/01/22 21:03:50;;;;;;;10.65;8.10;;;23.40;63.40;;;;;;6188078;28;86913;-91
2024/01/22 21:06:52;;;;;;;11.15;8.60;;;23.40;63.50;;;;;;6193061;28;87980;-91
2024/01/22 21:09:54;;;;;;;8.75;7.88;;;23.40;63.80;;;;;;6193511;28;90572;-92
2024/01/22 21:12:58;;;;;;;9.25;7.55;;;23.50;64.10;;;;;;6198647;28;89052;-91
2024/01/22 21:16:01;;;;;;;8.32;7.15;;;23.50;64.30;;;;;;6194674;28;86318;-91
2024/01/22 21:19:03;;;;;;;8.02;6.70;;;23.50;64.30;;;;;;6199970;28;89389;-92
2024/01/22 21:25:21;;;;;;;9.18;6.35;;;23.40;64.40;;;;;;6197665;28;89958;-91
2024/01/22 21:32:10;;;;;;;6.93;6.22;;;23.50;64.50;;;;;;6196192;28;90081;-92
2024/01/22 21:35:12;;;;;;;7.75;6.32;;;23.50;64.70;;;;;;6204267;28;87874;-92
2024/01/22 21:38:14;;;;;;;7.50;6.50;;;23.50;64.70;;;;;;6197672;28;89081;-92
2024/01/22 21:41:16;;;;;;;7.45;5.82;;;23.40;64.90;;;;;;6204871;28;89113;-92
2024/01/22 21:47:36;;;;;;;6.50;5.65;;;23.40;65.20;;;;;;6204190;28;88237;-91
2024/01/22 21:50:38;;;;;;;6.90;5.80;;;23.40;65.30;;;;;;6201987;28;87939;-91
2024/01/22 21:53:41;;;;;;;6.78;5.70;;;23.40;65.40;;;;;;6204984;28;89084;-91
2024/01/22 22:03:16;;;;;;;7.63;5.10;;;23.40;65.50;;;;;;6203422;28;89139;-91
2024/01/22 22:09:34;;;;;;;6.18;5.43;;;23.40;65.60;;;;;;6199836;28;88936;-92
2024/01/22 22:12:37;;;;;;;6.25;5.15;;;23.30;65.60;;;;;;6201529;28;88997;-92
2024/01/22 22:15:39;;;;;;;5.75;4.80;;;23.30;65.60;;;;;;6192873;28;89182;-92
2024/01/22 22:18:45;;;;;;;6.18;5.07;;;23.30;65.60;;;;;;6202604;28;87707;-92
2024/01/22 22:25:05;;;;;;;7.47;5.38;;;23.30;65.60;;;;;;6201082;28;89459;-92
2024/01/22 22:28:07;;;;;;;5.63;4.60;;;23.30;65.50;;;;;;6199987;28;89962;-92
2024/01/22 22:34:28;;;;;;;6.15;5.03;;;23.30;65.50;;;;;;6204096;28;89922;-92
2024/01/22 22:37:30;;;;;;;5.80;5.00;;;23.30;65.50;;;;;;6204575;28;86864;-92
2024/01/22 22:47:04;;;;;;;6.82;4.75;;;23.30;66.40;;;;;;6203599;28;90057;-92
2024/01/22 22:50:09;;;;;;;5.07;4.57;;;23.30;65.50;;;;;;6197647;28;88594;-92
2024/01/22 22:53:13;;;;;;;5.20;4.70;;;23.20;65.40;;;;;;6202901;28;89196;-91
2024/01/22 23:02:48;;;;;;;4.78;4.38;;;23.20;65.40;;;;;;6196019;28;88875;-92
2024/01/22 23:05:53;;;;;;;4.82;4.30;;;23.20;65.40;;;;;;6178311;28;88720;-92
2024/01/22 23:08:55;;;;;;;5.10;4.60;;;23.20;65.40;;;;;;6195358;28;89245;-91
2024/01/22 23:11:58;;;;;;;5.43;4.22;;;23.20;65.40;;;;;;6203249;28;88157;-92
2024/01/22 23:21:35;;;;;;;5.03;4.32;;;23.10;65.20;;;;;;6196044;28;88950;-92
2024/01/22 23:31:09;;;;;;;5.68;4.13;;;23.20;65.20;;;;;;6189840;28;91204;-92
2024/01/22 23:34:12;;;;;;;6.45;4.40;;;23.20;65.10;;;;;;6188548;28;89072;-92
2024/01/22 23:40:32;;;;;;;4.53;4.00;;;23.10;65.00;;;;;;6200934;28;88975;-92
2024/01/22 23:43:34;;;;;;;4.10;3.70;;;23.10;65.00;;;;;;6203170;28;87972;-92
2024/01/22 23:49:52;;;;;;;5.18;3.75;;;23.10;65.00;;;;;;6194360;28;90334;-92
2024/01/22 23:52:56;;;;;;;4.35;3.80;;;23.10;65.00;;;;;;6194873;28;87216;-92
2024/01/22 23:55:57;;;;;;;4.50;3.90;;;23.10;65.00;;;;;;6200412;28;89112;-92
